Aérodrome :
LOGIN :

S'inscrire | Disclaimer

   EN    FR    IT 

 










Légende :    VFR   VFR Marginal   IFR   IFR Intensif   IFR Très Intensif
Visi : 
Plafond : 
>= 8 km
>= 3000ft
5 à 8 km
1000 à 3000 ft
1500m à 5 km
500 à 1000 ft
800 à 1500m
200 à 500 ft
< 800m
< 200 ft
Symboles :   Orages  Brouillard  Fortes neiges  Fortes précipitations  Vent > 20 kt
SIGMETs :   Divers  Orages  Givrage  Turbulence  Onde Orograph.  Cendres Volcan.







- Altitude de l'aérodrome : 235 ft
- Code IATA : BZG


EPBY - Bydgoszcz

DERNIER METAR :
  • 222000Z 31007KT CAVOK 21/11 Q1020

METARs EXPIRÉS :
  • 221930Z 33005KT CAVOK 21/10 Q1020
  • 221900Z 32007KT CAVOK 21/10 Q1020
  • 221830Z 30009KT CAVOK 22/10 Q1020
  • 221800Z 29008KT CAVOK 22/10 Q1020
  • 221730Z 29011KT CAVOK 23/10 Q1020

TAF TAF EPBY
Valide du 22 à 18h jusqu'au 23 à 18h UTC


221730Z 2218/2318 28005KT 9999 SCT035
BECMG 2301/2303 -RA BKN013
TEMPO 2301/2314 BKN008
BECMG 2314/2316 BKN020
Pas de NOTAMs connus pour ce terrain.



MET'MAP, la Météo Aéronautique d'un coup d'oeil ! - Copyright ORBIFLY Décembre 2007 - Disclaimer

ORBIFLY MET'MAP TEAM :

Programmation & Développement : Alexandra Zaïnal
Conception & Développement : Baudouin d'Aumeries
Co-Programmation & Développement : Marc-Olivier Méhu
Soutien technique & logistique : Manuel Goepfert

Contact : metmap@orbifly.com




SOURCES & CREDITS :

   NOAA